sensor_id;sensor_type;location;lat;lon;timestamp;P1;durP1;ratioP1;P2;durP2;ratioP2
51692;SDS011;37777;53.066;21.638;2022-09-13T00:04:21;32.17;;;13.65;;
51692;SDS011;37777;53.066;21.638;2022-09-13T00:11:24;22.25;;;12.60;;
51692;SDS011;37777;53.066;21.638;2022-09-13T00:18:27;22.45;;;12.13;;
51692;SDS011;37777;53.066;21.638;2022-09-13T00:25:29;23.70;;;12.77;;
51692;SDS011;37777;53.066;21.638;2022-09-13T00:32:32;22.20;;;12.13;;
51692;SDS011;37777;53.066;21.638;2022-09-13T00:39:35;23.25;;;11.63;;
51692;SDS011;37777;53.066;21.638;2022-09-13T00:46:41;28.63;;;14.95;;
51692;SDS011;37777;53.066;21.638;2022-09-13T00:53:47;24.53;;;13.47;;
51692;SDS011;37777;53.066;21.638;2022-09-13T01:00:51;19.90;;;10.82;;
51692;SDS011;37777;53.066;21.638;2022-09-13T01:07:54;20.35;;;9.75;;
51692;SDS011;37777;53.066;21.638;2022-09-13T01:14:57;18.90;;;8.90;;
51692;SDS011;37777;53.066;21.638;2022-09-13T01:22:23;14.98;;;8.73;;
51692;SDS011;37777;53.066;21.638;2022-09-13T01:59:38;12.90;;;7.35;;
51692;SDS011;37777;53.066;21.638;2022-09-13T02:14:22;11.35;;;6.38;;
51692;SDS011;37777;53.066;21.638;2022-09-13T02:21:28;8.40;;;6.18;;
51692;SDS011;37777;53.066;21.638;2022-09-13T02:28:35;12.63;;;6.45;;
51692;SDS011;37777;53.066;21.638;2022-09-13T02:35:45;10.40;;;5.47;;
51692;SDS011;37777;53.066;21.638;2022-09-13T02:42:53;7.55;;;5.20;;
51692;SDS011;37777;53.066;21.638;2022-09-13T02:57:21;13.20;;;5.03;;
51692;SDS011;37777;53.066;21.638;2022-09-13T03:04:30;8.38;;;5.35;;
51692;SDS011;37777;53.066;21.638;2022-09-13T03:34:29;7.10;;;4.55;;
51692;SDS011;37777;53.066;21.638;2022-09-13T03:41:36;4.88;;;4.38;;
51692;SDS011;37777;53.066;21.638;2022-09-13T03:48:41;10.40;;;4.50;;
51692;SDS011;37777;53.066;21.638;2022-09-13T03:55:44;11.38;;;4.72;;
51692;SDS011;37777;53.066;21.638;2022-09-13T04:02:47;27.67;;;5.97;;
51692;SDS011;37777;53.066;21.638;2022-09-13T04:09:49;16.17;;;5.20;;
51692;SDS011;37777;53.066;21.638;2022-09-13T04:16:51;6.10;;;4.28;;
51692;SDS011;37777;53.066;21.638;2022-09-13T04:23:54;6.78;;;4.50;;
51692;SDS011;37777;53.066;21.638;2022-09-13T04:30:56;7.80;;;4.70;;
51692;SDS011;37777;53.066;21.638;2022-09-13T04:37:58;21.33;;;7.35;;
51692;SDS011;37777;53.066;21.638;2022-09-13T04:45:01;16.48;;;7.30;;
51692;SDS011;37777;53.066;21.638;2022-09-13T04:52:03;19.15;;;7.07;;
51692;SDS011;37777;53.066;21.638;2022-09-13T04:59:05;18.70;;;5.68;;
51692;SDS011;37777;53.066;21.638;2022-09-13T05:06:09;9.07;;;5.40;;
51692;SDS011;37777;53.066;21.638;2022-09-13T05:13:14;6.90;;;5.15;;
51692;SDS011;37777;53.066;21.638;2022-09-13T05:20:17;9.77;;;6.15;;
51692;SDS011;37777;53.066;21.638;2022-09-13T05:27:19;6.38;;;4.95;;
51692;SDS011;37777;53.066;21.638;2022-09-13T05:34:21;8.82;;;5.80;;
51692;SDS011;37777;53.066;21.638;2022-09-13T05:41:23;11.57;;;5.03;;
51692;SDS011;37777;53.066;21.638;2022-09-13T05:48:25;10.95;;;5.75;;
51692;SDS011;37777;53.066;21.638;2022-09-13T05:55:27;17.65;;;6.60;;
51692;SDS011;37777;53.066;21.638;2022-09-13T06:02:29;9.65;;;6.85;;
51692;SDS011;37777;53.066;21.638;2022-09-13T06:09:32;10.13;;;6.50;;
51692;SDS011;37777;53.066;21.638;2022-09-13T06:16:34;18.23;;;7.57;;
51692;SDS011;37777;53.066;21.638;2022-09-13T06:23:37;28.00;;;10.60;;
51692;SDS011;37777;53.066;21.638;2022-09-13T06:30:39;16.23;;;7.88;;
51692;SDS011;37777;53.066;21.638;2022-09-13T06:37:41;18.00;;;8.82;;
51692;SDS011;37777;53.066;21.638;2022-09-13T06:44:44;7.97;;;5.72;;
51692;SDS011;37777;53.066;21.638;2022-09-13T06:51:49;6.35;;;5.43;;
51692;SDS011;37777;53.066;21.638;2022-09-13T06:58:53;14.95;;;6.07;;
51692;SDS011;37777;53.066;21.638;2022-09-13T07:05:56;34.05;;;7.05;;
51692;SDS011;37777;53.066;21.638;2022-09-13T07:12:58;20.55;;;7.03;;
51692;SDS011;37777;53.066;21.638;2022-09-13T07:20:00;17.08;;;9.23;;
51692;SDS011;37777;53.066;21.638;2022-09-13T07:27:03;12.77;;;8.80;;
51692;SDS011;37777;53.066;21.638;2022-09-13T07:34:06;12.10;;;9.50;;
51692;SDS011;37777;53.066;21.638;2022-09-13T07:41:10;14.48;;;9.90;;
51692;SDS011;37777;53.066;21.638;2022-09-13T07:48:13;15.68;;;10.18;;
51692;SDS011;37777;53.066;21.638;2022-09-13T07:55:15;15.90;;;10.68;;
51692;SDS011;37777;53.066;21.638;2022-09-13T08:02:17;13.90;;;10.20;;
51692;SDS011;37777;53.066;21.638;2022-09-13T08:09:19;14.15;;;9.27;;
51692;SDS011;37777;53.066;21.638;2022-09-13T08:16:22;11.68;;;9.25;;
51692;SDS011;37777;53.066;21.638;2022-09-13T08:23:24;15.52;;;9.88;;
51692;SDS011;37777;53.066;21.638;2022-09-13T08:30:27;17.23;;;9.82;;
51692;SDS011;37777;53.066;21.638;2022-09-13T08:37:33;13.88;;;9.50;;
51692;SDS011;37777;53.066;21.638;2022-09-13T08:44:45;12.63;;;9.15;;
51692;SDS011;37777;53.066;21.638;2022-09-13T08:51:53;11.25;;;7.63;;
51692;SDS011;37777;53.066;21.638;2022-09-13T08:59:13;11.43;;;6.38;;
51692;SDS011;37777;53.066;21.638;2022-09-13T09:06:18;10.77;;;7.28;;
51692;SDS011;37777;53.066;21.638;2022-09-13T09:20:35;6.32;;;3.95;;
51692;SDS011;37777;53.066;21.638;2022-09-13T09:27:41;6.05;;;4.07;;
51692;SDS011;37777;53.066;21.638;2022-09-13T09:42:17;4.72;;;3.60;;
51692;SDS011;37777;53.066;21.638;2022-09-13T09:49:32;5.28;;;3.92;;
51692;SDS011;37777;53.066;21.638;2022-09-13T09:56:56;4.53;;;3.90;;
51692;SDS011;37777;53.066;21.638;2022-09-13T10:04:05;5.88;;;4.05;;
51692;SDS011;37777;53.066;21.638;2022-09-13T10:11:10;7.65;;;4.35;;
51692;SDS011;37777;53.066;21.638;2022-09-13T10:18:14;4.55;;;3.63;;
51692;SDS011;37777;53.066;21.638;2022-09-13T10:25:37;4.03;;;3.63;;
51692;SDS011;37777;53.066;21.638;2022-09-13T10:32:40;4.65;;;3.47;;
51692;SDS011;37777;53.066;21.638;2022-09-13T10:40:17;6.40;;;3.72;;
51692;SDS011;37777;53.066;21.638;2022-09-13T10:47:43;6.70;;;4.18;;
51692;SDS011;37777;53.066;21.638;2022-09-13T10:54:48;4.07;;;3.57;;
51692;SDS011;37777;53.066;21.638;2022-09-13T11:31:25;4.35;;;3.13;;
51692;SDS011;37777;53.066;21.638;2022-09-13T11:46:06;3.88;;;3.28;;
51692;SDS011;37777;53.066;21.638;2022-09-13T12:01:10;4.07;;;2.90;;
51692;SDS011;37777;53.066;21.638;2022-09-13T12:08:18;3.13;;;2.70;;
51692;SDS011;37777;53.066;21.638;2022-09-13T12:22:37;3.40;;;2.70;;
51692;SDS011;37777;53.066;21.638;2022-09-13T12:29:43;3.90;;;2.97;;
51692;SDS011;37777;53.066;21.638;2022-09-13T12:36:56;5.93;;;2.88;;
51692;SDS011;37777;53.066;21.638;2022-09-13T12:51:26;4.75;;;3.65;;
51692;SDS011;37777;53.066;21.638;2022-09-13T12:58:41;4.70;;;3.50;;
51692;SDS011;37777;53.066;21.638;2022-09-13T13:05:55;8.23;;;3.42;;
51692;SDS011;37777;53.066;21.638;2022-09-13T13:13:52;4.15;;;3.60;;
51692;SDS011;37777;53.066;21.638;2022-09-13T13:27:52;4.65;;;3.97;;
51692;SDS011;37777;53.066;21.638;2022-09-13T13:34:55;5.25;;;3.60;;
51692;SDS011;37777;53.066;21.638;2022-09-13T13:42:30;9.88;;;6.63;;
51692;SDS011;37777;53.066;21.638;2022-09-13T13:56:46;5.93;;;3.95;;
51692;SDS011;37777;53.066;21.638;2022-09-13T14:11:48;5.78;;;4.05;;
51692;SDS011;37777;53.066;21.638;2022-09-13T14:25:59;9.77;;;5.35;;
51692;SDS011;37777;53.066;21.638;2022-09-13T14:33:02;5.88;;;3.70;;
51692;SDS011;37777;53.066;21.638;2022-09-13T14:40:26;5.13;;;3.67;;
51692;SDS011;37777;53.066;21.638;2022-09-13T14:47:31;7.50;;;4.13;;
51692;SDS011;37777;53.066;21.638;2022-09-13T14:54:38;7.32;;;3.92;;
51692;SDS011;37777;53.066;21.638;2022-09-13T15:01:48;7.72;;;4.78;;
51692;SDS011;37777;53.066;21.638;2022-09-13T15:08:50;7.07;;;5.28;;
51692;SDS011;37777;53.066;21.638;2022-09-13T15:15:54;5.90;;;4.05;;
51692;SDS011;37777;53.066;21.638;2022-09-13T15:22:56;4.40;;;3.72;;
51692;SDS011;37777;53.066;21.638;2022-09-13T15:29:59;5.82;;;4.45;;
51692;SDS011;37777;53.066;21.638;2022-09-13T15:44:07;10.10;;;4.57;;
51692;SDS011;37777;53.066;21.638;2022-09-13T15:51:11;5.78;;;4.25;;
51692;SDS011;37777;53.066;21.638;2022-09-13T15:58:14;6.47;;;4.30;;
51692;SDS011;37777;53.066;21.638;2022-09-13T16:05:17;6.85;;;4.68;;
51692;SDS011;37777;53.066;21.638;2022-09-13T16:12:19;9.10;;;5.97;;
51692;SDS011;37777;53.066;21.638;2022-09-13T16:19:25;8.73;;;5.53;;
51692;SDS011;37777;53.066;21.638;2022-09-13T16:26:27;10.48;;;6.45;;
51692;SDS011;37777;53.066;21.638;2022-09-13T16:33:32;10.25;;;6.50;;
51692;SDS011;37777;53.066;21.638;2022-09-13T16:40:37;12.45;;;6.80;;
51692;SDS011;37777;53.066;21.638;2022-09-13T16:47:40;14.48;;;7.38;;
51692;SDS011;37777;53.066;21.638;2022-09-13T16:54:42;12.70;;;6.95;;
51692;SDS011;37777;53.066;21.638;2022-09-13T17:01:47;13.43;;;7.80;;
51692;SDS011;37777;53.066;21.638;2022-09-13T17:08:54;16.10;;;8.35;;
51692;SDS011;37777;53.066;21.638;2022-09-13T17:15:57;13.60;;;7.78;;
51692;SDS011;37777;53.066;21.638;2022-09-13T17:23:00;9.95;;;6.88;;
51692;SDS011;37777;53.066;21.638;2022-09-13T17:30:02;11.75;;;7.35;;
51692;SDS011;37777;53.066;21.638;2022-09-13T17:37:11;8.52;;;6.30;;
51692;SDS011;37777;53.066;21.638;2022-09-13T17:44:14;11.32;;;6.78;;
51692;SDS011;37777;53.066;21.638;2022-09-13T17:51:22;8.32;;;5.97;;
51692;SDS011;37777;53.066;21.638;2022-09-13T17:58:30;11.70;;;6.80;;
51692;SDS011;37777;53.066;21.638;2022-09-13T18:05:43;11.32;;;6.90;;
51692;SDS011;37777;53.066;21.638;2022-09-13T18:12:52;10.52;;;6.85;;
51692;SDS011;37777;53.066;21.638;2022-09-13T18:27:15;11.02;;;6.63;;
51692;SDS011;37777;53.066;21.638;2022-09-13T18:34:49;11.77;;;7.18;;
51692;SDS011;37777;53.066;21.638;2022-09-13T18:42:05;11.30;;;7.38;;
51692;SDS011;37777;53.066;21.638;2022-09-13T18:49:21;8.38;;;5.97;;
51692;SDS011;37777;53.066;21.638;2022-09-13T18:56:29;9.63;;;6.75;;
51692;SDS011;37777;53.066;21.638;2022-09-13T19:03:50;10.25;;;6.47;;
51692;SDS011;37777;53.066;21.638;2022-09-13T19:10:58;11.07;;;6.30;;
51692;SDS011;37777;53.066;21.638;2022-09-13T19:18:35;9.73;;;6.82;;
51692;SDS011;37777;53.066;21.638;2022-09-13T19:25:43;13.77;;;6.80;;
51692;SDS011;37777;53.066;21.638;2022-09-13T19:32:45;10.27;;;6.75;;
51692;SDS011;37777;53.066;21.638;2022-09-13T19:39:47;7.57;;;6.10;;
51692;SDS011;37777;53.066;21.638;2022-09-13T19:46:50;9.38;;;6.68;;
51692;SDS011;37777;53.066;21.638;2022-09-13T19:54:13;9.50;;;6.78;;
51692;SDS011;37777;53.066;21.638;2022-09-13T20:01:25;17.07;;;8.43;;
51692;SDS011;37777;53.066;21.638;2022-09-13T20:08:33;15.45;;;8.52;;
51692;SDS011;37777;53.066;21.638;2022-09-13T20:15:39;13.23;;;7.72;;
51692;SDS011;37777;53.066;21.638;2022-09-13T20:22:42;14.60;;;9.18;;
51692;SDS011;37777;53.066;21.638;2022-09-13T20:29:46;18.20;;;10.35;;
51692;SDS011;37777;53.066;21.638;2022-09-13T20:36:51;15.60;;;8.75;;
51692;SDS011;37777;53.066;21.638;2022-09-13T20:43:54;15.73;;;9.32;;
51692;SDS011;37777;53.066;21.638;2022-09-13T20:51:03;15.40;;;9.60;;
51692;SDS011;37777;53.066;21.638;2022-09-13T20:58:11;11.20;;;8.13;;
51692;SDS011;37777;53.066;21.638;2022-09-13T21:05:14;12.13;;;8.82;;
51692;SDS011;37777;53.066;21.638;2022-09-13T21:12:16;12.43;;;8.82;;
51692;SDS011;37777;53.066;21.638;2022-09-13T21:19:18;20.60;;;8.52;;
51692;SDS011;37777;53.066;21.638;2022-09-13T21:26:20;13.77;;;8.75;;
51692;SDS011;37777;53.066;21.638;2022-09-13T21:33:24;11.40;;;7.47;;
51692;SDS011;37777;53.066;21.638;2022-09-13T21:40:27;12.85;;;8.40;;
51692;SDS011;37777;53.066;21.638;2022-09-13T21:47:29;17.70;;;9.38;;
51692;SDS011;37777;53.066;21.638;2022-09-13T21:54:31;14.40;;;8.95;;
51692;SDS011;37777;53.066;21.638;2022-09-13T22:01:34;14.35;;;8.75;;
51692;SDS011;37777;53.066;21.638;2022-09-13T22:08:40;13.70;;;8.57;;
51692;SDS011;37777;53.066;21.638;2022-09-13T22:15:47;11.80;;;8.38;;
51692;SDS011;37777;53.066;21.638;2022-09-13T22:22:49;12.00;;;8.43;;
51692;SDS011;37777;53.066;21.638;2022-09-13T22:29:51;12.13;;;8.30;;
51692;SDS011;37777;53.066;21.638;2022-09-13T22:36:53;10.98;;;8.75;;
51692;SDS011;37777;53.066;21.638;2022-09-13T22:43:58;15.55;;;9.07;;
51692;SDS011;37777;53.066;21.638;2022-09-13T22:51:01;15.38;;;8.98;;
51692;SDS011;37777;53.066;21.638;2022-09-13T22:58:06;12.73;;;9.18;;
51692;SDS011;37777;53.066;21.638;2022-09-13T23:05:08;17.42;;;9.85;;
51692;SDS011;37777;53.066;21.638;2022-09-13T23:12:10;17.02;;;9.95;;
51692;SDS011;37777;53.066;21.638;2022-09-13T23:19:13;14.20;;;9.63;;
51692;SDS011;37777;53.066;21.638;2022-09-13T23:26:16;20.13;;;9.68;;
51692;SDS011;37777;53.066;21.638;2022-09-13T23:33:19;15.60;;;9.98;;
51692;SDS011;37777;53.066;21.638;2022-09-13T23:40:21;14.95;;;9.70;;
51692;SDS011;37777;53.066;21.638;2022-09-13T23:47:23;18.13;;;10.02;;
51692;SDS011;37777;53.066;21.638;2022-09-13T23:54:25;18.63;;;11.20;;
